createdAt,value
2022-09-26T00:00:10.543Z,65.16
2022-09-26T00:03:02.750Z,65.36
2022-09-26T00:05:36.046Z,65.30
2022-09-26T00:08:05.451Z,65.44
2022-09-26T00:10:34.653Z,65.36
2022-09-26T00:13:03.613Z,65.45
2022-09-26T00:15:32.723Z,65.56
2022-09-26T00:18:01.659Z,65.53
2022-09-26T00:20:30.638Z,65.41
2022-09-26T00:23:01.157Z,65.66
2022-09-26T00:25:30.127Z,65.82
2022-09-26T00:27:59.027Z,65.63
2022-09-26T00:30:28.357Z,65.64
2022-09-26T00:32:57.486Z,65.64
2022-09-26T00:35:26.459Z,65.67
2022-09-26T00:37:55.634Z,65.60
2022-09-26T00:40:28.224Z,65.95
2022-09-26T00:42:57.713Z,65.72
2022-09-26T00:45:31.316Z,65.93
2022-09-26T00:48:03.506Z,65.84
2022-09-26T00:50:36.409Z,66.28
2022-09-26T00:53:09.151Z,66.14
2022-09-26T00:55:43.260Z,66.30
2022-09-26T00:58:17.912Z,66.30
2022-09-26T01:00:50.184Z,66.35
2022-09-26T01:03:22.058Z,66.33
2022-09-26T01:05:51.544Z,66.27
2022-09-26T01:08:23.075Z,66.24
2022-09-26T01:10:53.794Z,66.39
2022-09-26T01:13:23.308Z,66.20
2022-09-26T01:15:52.476Z,66.37
2022-09-26T01:18:22.360Z,66.39
2022-09-26T01:20:58.215Z,66.43
2022-09-26T01:23:56.850Z,66.36
2022-09-26T01:26:59.227Z,66.35
2022-09-26T01:30:01.311Z,66.43
2022-09-26T01:33:08.146Z,66.43
2022-09-26T01:35:51.477Z,66.45
2022-09-26T01:38:29.348Z,66.33
2022-09-26T01:41:12.816Z,66.46
2022-09-26T01:43:49.931Z,66.58
2022-09-26T01:46:31.060Z,66.37
2022-09-26T01:49:09.741Z,66.43
2022-09-26T01:51:49.804Z,66.44
2022-09-26T01:54:22.937Z,66.38
2022-09-26T01:56:58.356Z,66.48
2022-09-26T01:59:33.195Z,66.57
2022-09-26T02:02:09.532Z,66.61
2022-09-26T02:04:44.642Z,66.55
2022-09-26T02:07:17.913Z,66.72
2022-09-26T02:09:59.326Z,66.54
2022-09-26T02:12:34.144Z,66.77
2022-09-26T02:15:08.097Z,66.75
2022-09-26T02:17:41.908Z,66.63
2022-09-26T02:20:17.318Z,66.63
2022-09-26T02:22:48.016Z,66.73
2022-09-26T02:25:17.481Z,66.64
2022-09-26T02:27:46.528Z,66.68
2022-09-26T02:31:17.800Z,66.70
2022-09-26T02:33:47.754Z,66.64
2022-09-26T02:36:19.329Z,66.50
2022-09-26T02:38:49.189Z,66.66
2022-09-26T02:41:51.520Z,66.67
2022-09-26T02:44:49.653Z,66.53
2022-09-26T02:47:47.928Z,66.59
2022-09-26T02:50:32.878Z,66.57
2022-09-26T02:53:20.137Z,66.51
2022-09-26T02:56:09.352Z,66.69
2022-09-26T02:58:48.295Z,66.61
2022-09-26T03:01:22.648Z,66.72
2022-09-26T03:04:00.973Z,66.75
2022-09-26T03:06:35.696Z,66.67
2022-09-26T03:09:07.779Z,66.69
2022-09-26T03:11:37.592Z,66.73
2022-09-26T03:14:08.804Z,66.71
2022-09-26T03:16:44.572Z,66.60
2022-09-26T03:19:22.557Z,66.61
2022-09-26T03:21:51.930Z,66.67
2022-09-26T03:24:24.082Z,66.61
2022-09-26T03:26:53.701Z,66.56
2022-09-26T03:29:23.976Z,66.49
2022-09-26T03:31:53.776Z,66.62
2022-09-26T03:34:23.045Z,66.63
2022-09-26T03:36:53.047Z,66.47
2022-09-26T03:39:24.125Z,66.48
2022-09-26T03:42:05.996Z,66.42
2022-09-26T03:44:35.889Z,66.50
2022-09-26T03:47:14.609Z,66.42
2022-09-26T03:49:46.138Z,66.21
2022-09-26T03:52:15.936Z,66.40
2022-09-26T03:54:47.898Z,66.36
2022-09-26T03:57:19.031Z,66.43
2022-09-26T03:59:55.351Z,66.38
2022-09-26T04:02:25.529Z,66.46
2022-09-26T04:05:10.204Z,66.43
2022-09-26T04:07:39.504Z,66.47
2022-09-26T04:10:10.913Z,66.40
2022-09-26T04:12:41.582Z,66.46
2022-09-26T04:15:12.163Z,66.51
2022-09-26T04:17:42.196Z,66.43
2022-09-26T04:20:11.434Z,66.41
2022-09-26T04:22:42.335Z,66.48
2022-09-26T04:25:12.938Z,66.62
2022-09-26T04:27:42.229Z,66.49
2022-09-26T04:30:13.020Z,66.38
2022-09-26T04:32:54.249Z,66.40
2022-09-26T04:35:38.966Z,66.44
2022-09-26T04:38:09.556Z,66.46
2022-09-26T04:40:42.950Z,66.49
2022-09-26T04:43:14.239Z,66.58
2022-09-26T04:45:44.108Z,66.51
2022-09-26T04:48:15.275Z,66.58
2022-09-26T04:51:12.351Z,66.51
2022-09-26T04:53:42.619Z,66.70
2022-09-26T04:56:21.573Z,66.68
2022-09-26T04:58:51.230Z,66.68
2022-09-26T05:01:22.381Z,66.75
2022-09-26T05:04:17.519Z,66.62
2022-09-26T05:06:46.744Z,66.75
2022-09-26T05:09:25.915Z,66.78
2022-09-26T05:12:02.080Z,66.78
2022-09-26T05:14:34.012Z,66.85
2022-09-26T05:17:03.860Z,66.85
2022-09-26T05:19:33.009Z,66.73
2022-09-26T05:22:38.279Z,66.89
2022-09-26T05:25:25.248Z,66.80
2022-09-26T05:27:55.850Z,66.88
2022-09-26T05:30:31.406Z,67.02
2022-09-26T05:33:01.155Z,67.04
2022-09-26T05:35:35.333Z,67.06
2022-09-26T05:38:06.313Z,67.06
2022-09-26T05:40:55.518Z,67.02
2022-09-26T05:43:29.184Z,67.20
2022-09-26T05:45:59.921Z,67.20
2022-09-26T05:48:35.332Z,67.07
2022-09-26T05:51:06.468Z,67.32
2022-09-26T05:53:35.770Z,67.21
2022-09-26T05:56:05.415Z,67.24
2022-09-26T05:58:56.171Z,67.20
2022-09-26T06:01:57.692Z,67.42
2022-09-26T06:04:41.161Z,67.44
2022-09-26T06:07:33.603Z,67.44
2022-09-26T06:10:07.196Z,67.50
2022-09-26T06:12:45.433Z,67.61
2022-09-26T06:15:18.620Z,67.62
2022-09-26T06:17:48.284Z,67.70
2022-09-26T06:20:17.535Z,67.78
2022-09-26T06:22:46.539Z,67.87
2022-09-26T06:25:15.867Z,67.86
2022-09-26T06:27:45.100Z,67.92
2022-09-26T06:30:14.693Z,68.17
2022-09-26T06:32:46.400Z,68.26
2022-09-26T06:35:22.803Z,68.44
2022-09-26T06:38:10.626Z,68.42
2022-09-26T06:40:40.059Z,68.66
2022-09-26T06:43:09.163Z,68.79
2022-09-26T06:45:56.629Z,69.01
2022-09-26T06:48:32.174Z,69.25
2022-09-26T06:51:04.053Z,69.22
2022-09-26T06:53:34.896Z,69.15
2022-09-26T06:56:05.107Z,69.12
2022-09-26T06:58:34.616Z,69.37
2022-09-26T07:01:07.641Z,69.53
2022-09-26T07:04:15.801Z,69.48
2022-09-26T07:07:07.335Z,69.42
2022-09-26T07:09:36.273Z,69.47
2022-09-26T07:12:16.544Z,69.54
2022-09-26T07:14:50.066Z,69.48
2022-09-26T07:17:28.393Z,69.47
2022-09-26T07:20:13.305Z,69.47
2022-09-26T07:23:08.648Z,69.41
2022-09-26T07:25:39.579Z,69.47
2022-09-26T07:28:10.768Z,69.44
2022-09-26T07:30:50.826Z,69.53
2022-09-26T07:33:39.561Z,69.62
2022-09-26T07:36:11.812Z,69.57
2022-09-26T07:38:42.737Z,69.59
2022-09-26T07:41:12.324Z,69.65
2022-09-26T07:46:50.207Z,69.94
2022-09-26T07:49:37.023Z,69.87
2022-09-26T07:52:25.988Z,69.87
2022-09-26T07:55:20.763Z,70.08
2022-09-26T07:58:10.091Z,70.15
2022-09-26T08:00:52.509Z,70.08
2022-09-26T08:03:50.499Z,70.10
2022-09-26T08:06:28.599Z,69.97
2022-09-26T08:08:59.449Z,69.85
2022-09-26T08:11:46.914Z,69.97
2022-09-26T08:14:53.069Z,70.04
2022-09-26T08:17:37.060Z,70.06
2022-09-26T08:20:07.608Z,70.09
2022-09-26T08:22:37.135Z,70.11
2022-09-26T08:25:09.884Z,70.32
2022-09-26T08:27:53.277Z,70.22
2022-09-26T08:30:25.820Z,70.21
2022-09-26T08:32:59.295Z,70.39
2022-09-26T08:35:29.455Z,70.20
2022-09-26T08:38:17.375Z,70.45
2022-09-26T08:41:22.161Z,70.35
2022-09-26T08:44:32.090Z,70.52
2022-09-26T08:47:33.695Z,70.36
2022-09-26T08:50:24.256Z,70.42
2022-09-26T08:52:56.877Z,70.30
2022-09-26T08:55:30.459Z,70.31
2022-09-26T08:58:05.865Z,70.35
2022-09-26T09:00:38.173Z,70.39
2022-09-26T09:03:24.383Z,70.34
2022-09-26T09:06:01.257Z,70.42
2022-09-26T09:08:36.202Z,70.23
2022-09-26T09:11:23.012Z,70.36
2022-09-26T09:14:11.240Z,70.37
2022-09-26T09:17:10.882Z,70.30
2022-09-26T09:20:17.586Z,70.25
2022-09-26T09:23:36.030Z,70.22
2022-09-26T09:29:25.143Z,69.42
2022-09-26T09:32:22.698Z,69.50
2022-09-26T09:35:19.947Z,68.86
2022-09-26T09:38:03.847Z,68.54
2022-09-26T09:40:46.688Z,68.30
2022-09-26T09:43:26.123Z,68.13
2022-09-26T09:46:04.299Z,68.17
2022-09-26T09:48:34.056Z,68.14
2022-09-26T09:51:13.382Z,67.80
2022-09-26T09:53:59.259Z,67.74
2022-09-26T09:56:41.080Z,67.76
2022-09-26T09:59:40.698Z,67.59
2022-09-26T10:02:23.707Z,67.54
2022-09-26T10:04:59.723Z,67.47
2022-09-26T10:07:29.385Z,67.48
2022-09-26T10:10:26.113Z,67.51
2022-09-26T10:13:14.546Z,67.54
2022-09-26T10:16:05.772Z,67.25
2022-09-26T10:19:03.521Z,67.52
2022-09-26T10:21:39.528Z,67.51
2022-09-26T10:24:24.048Z,67.33
2022-09-26T10:26:59.447Z,67.18
2022-09-26T10:29:38.414Z,66.76
2022-09-26T10:32:09.645Z,66.62
2022-09-26T10:34:42.632Z,66.25
2022-09-26T10:37:24.021Z,66.46
2022-09-26T10:40:18.063Z,66.83
2022-09-26T10:42:47.549Z,66.76
2022-09-26T10:45:20.471Z,66.78
2022-09-26T10:48:08.902Z,66.68
2022-09-26T10:51:02.145Z,66.73
2022-09-26T10:53:40.357Z,66.19
2022-09-26T10:56:13.278Z,65.92
2022-09-26T10:58:47.122Z,65.83
2022-09-26T11:01:26.535Z,65.69
2022-09-26T11:04:00.124Z,65.36
2022-09-26T11:06:35.426Z,65.88
2022-09-26T11:09:21.556Z,65.32
2022-09-26T11:12:25.530Z,65.49
2022-09-26T11:14:59.945Z,65.12
2022-09-26T11:17:47.541Z,65.06
2022-09-26T11:20:28.894Z,64.82
2022-09-26T11:23:07.952Z,64.79
2022-09-26T11:25:58.426Z,64.73
2022-09-26T11:28:36.572Z,64.67
2022-09-26T11:31:27.719Z,64.52
2022-09-26T11:34:21.872Z,64.55
2022-09-26T11:37:19.460Z,64.22
2022-09-26T11:40:20.717Z,64.60
2022-09-26T11:43:14.548Z,64.35
2022-09-26T11:46:04.407Z,64.48
2022-09-26T11:49:31.208Z,64.73
2022-09-26T11:52:46.883Z,64.40
2022-09-26T11:55:29.279Z,64.47
2022-09-26T11:58:05.234Z,64.74
2022-09-26T12:00:44.959Z,64.21
2022-09-26T12:03:37.179Z,64.27
2022-09-26T12:06:20.468Z,64.43
2022-09-26T12:09:12.024Z,64.67
2022-09-26T12:11:53.462Z,64.29
2022-09-26T12:14:39.299Z,64.38
2022-09-26T12:17:19.664Z,64.20
2022-09-26T12:19:58.267Z,64.32
2022-09-26T12:22:36.138Z,63.78
2022-09-26T12:25:27.342Z,64.02
2022-09-26T12:28:16.565Z,63.94
2022-09-26T12:30:57.969Z,64.02
2022-09-26T12:34:03.593Z,63.85
2022-09-26T12:36:48.020Z,63.37
2022-09-26T12:39:38.291Z,62.96
2022-09-26T12:42:26.626Z,62.97
2022-09-26T12:45:26.701Z,63.48
2022-09-26T12:48:22.941Z,63.45
2022-09-26T12:51:08.225Z,63.72
2022-09-26T12:53:56.272Z,63.93
2022-09-26T12:56:40.066Z,63.71
2022-09-26T12:59:23.494Z,64.05
2022-09-26T13:02:14.611Z,63.98
2022-09-26T13:05:17.676Z,64.26
2022-09-26T13:07:57.409Z,64.33
2022-09-26T13:10:40.976Z,64.56
2022-09-26T13:13:40.966Z,64.49
2022-09-26T13:16:26.449Z,64.57
2022-09-26T13:19:01.649Z,64.44
2022-09-26T13:21:44.852Z,64.77
2022-09-26T13:24:21.721Z,64.85
2022-09-26T13:26:54.796Z,64.97
2022-09-26T13:29:28.640Z,64.68
2022-09-26T13:32:11.348Z,64.86
2022-09-26T13:34:47.881Z,65.01
2022-09-26T13:37:38.311Z,64.70
2022-09-26T13:40:22.511Z,64.78
2022-09-26T13:43:02.792Z,64.65
2022-09-26T13:45:46.431Z,64.74
2022-09-26T13:48:26.411Z,64.41
2022-09-26T13:51:12.920Z,64.42
2022-09-26T13:53:51.101Z,63.96
2022-09-26T13:56:51.247Z,64.13
2022-09-26T13:59:50.188Z,63.95
2022-09-26T14:02:23.515Z,63.29
2022-09-26T14:04:54.332Z,63.33
2022-09-26T14:08:05.027Z,63.16
2022-09-26T14:10:39.399Z,63.38
2022-09-26T14:13:20.251Z,63.13
2022-09-26T14:16:31.777Z,63.29
2022-09-26T14:19:07.155Z,62.85
2022-09-26T14:21:39.613Z,62.62
2022-09-26T14:24:33.791Z,62.50
2022-09-26T14:27:39.564Z,62.35
2022-09-26T14:30:25.902Z,62.37
2022-09-26T14:33:02.261Z,62.33
2022-09-26T14:35:35.017Z,62.31
2022-09-26T14:38:10.760Z,62.27
2022-09-26T14:40:40.709Z,62.22
2022-09-26T14:43:17.953Z,62.40
2022-09-26T14:45:50.351Z,62.56
2022-09-26T14:48:35.832Z,62.57
2022-09-26T14:51:25.685Z,62.74
2022-09-26T14:54:00.480Z,62.65
2022-09-26T14:56:42.878Z,62.66
2022-09-26T14:59:42.097Z,62.88
2022-09-26T15:02:46.449Z,62.71
2022-09-26T15:05:25.230Z,62.71
2022-09-26T15:08:00.362Z,62.60
2022-09-26T15:10:42.829Z,62.92
2022-09-26T15:13:26.437Z,62.72
2022-09-26T15:16:10.003Z,62.82
2022-09-26T15:18:42.507Z,62.83
2022-09-26T15:21:19.629Z,62.81
2022-09-26T15:23:53.670Z,62.73
2022-09-26T15:26:26.198Z,62.97
2022-09-26T15:28:57.666Z,63.07
2022-09-26T15:31:30.204Z,62.96
2022-09-26T15:34:02.821Z,63.05
2022-09-26T15:36:37.345Z,63.02
2022-09-26T15:39:38.041Z,63.12
2022-09-26T15:42:39.621Z,63.10
2022-09-26T15:45:27.267Z,63.19
2022-09-26T15:47:58.795Z,63.35
2022-09-26T15:50:32.887Z,63.42
2022-09-26T15:53:07.833Z,63.17
2022-09-26T15:55:49.077Z,63.18
2022-09-26T15:58:23.273Z,63.32
2022-09-26T16:00:54.181Z,63.37
2022-09-26T16:03:48.949Z,63.47
2022-09-26T16:06:31.190Z,63.43
2022-09-26T16:09:07.831Z,63.38
2022-09-26T16:11:47.673Z,63.39
2022-09-26T16:14:30.172Z,63.54
2022-09-26T16:17:11.020Z,63.39
2022-09-26T16:19:46.151Z,63.58
2022-09-26T16:22:44.559Z,63.39
2022-09-26T16:25:34.510Z,63.34
2022-09-26T16:28:42.503Z,63.49
2022-09-26T16:31:26.904Z,63.41
2022-09-26T16:33:58.463Z,63.54
2022-09-26T16:36:29.903Z,63.56
2022-09-26T16:39:02.079Z,63.40
2022-09-26T16:44:35.255Z,63.34
2022-09-26T16:47:29.184Z,63.40
2022-09-26T16:49:58.634Z,63.47
2022-09-26T16:52:34.419Z,63.53
2022-09-26T16:55:06.076Z,63.53
2022-09-26T16:57:39.170Z,63.60
2022-09-26T17:00:35.440Z,63.55
2022-09-26T17:03:15.193Z,63.67
2022-09-26T17:05:44.502Z,63.70
2022-09-26T17:08:13.596Z,63.64
2022-09-26T17:10:43.505Z,63.70
2022-09-26T17:13:17.107Z,63.67
2022-09-26T17:15:49.074Z,63.77
2022-09-26T17:18:22.113Z,63.61
2022-09-26T17:20:52.016Z,63.66
2022-09-26T17:23:40.019Z,63.71
2022-09-26T17:26:20.500Z,63.63
2022-09-26T17:28:50.614Z,63.90
2022-09-26T17:31:22.680Z,63.83
2022-09-26T17:33:54.803Z,63.78
2022-09-26T17:36:27.351Z,63.94
2022-09-26T17:38:59.701Z,63.91
2022-09-26T17:41:31.420Z,63.90
2022-09-26T17:44:01.067Z,63.85
2022-09-26T17:46:35.244Z,63.94
2022-09-26T17:49:06.406Z,63.93
2022-09-26T17:51:36.375Z,64.11
2022-09-26T17:54:07.590Z,64.00
2022-09-26T17:56:36.945Z,64.07
2022-09-26T17:59:12.509Z,64.08
2022-09-26T18:01:43.373Z,64.06
2022-09-26T18:04:17.971Z,64.07
2022-09-26T18:06:47.420Z,64.01
2022-09-26T18:09:17.246Z,64.06
2022-09-26T18:11:51.403Z,64.07
2022-09-26T18:14:20.976Z,64.21
2022-09-26T18:16:52.615Z,64.06
2022-09-26T18:19:22.423Z,64.12
2022-09-26T18:21:55.672Z,64.12
2022-09-26T18:24:29.661Z,64.13
2022-09-26T18:27:03.976Z,64.23
2022-09-26T18:29:38.983Z,64.31
2022-09-26T18:32:18.715Z,64.29
2022-09-26T18:34:50.564Z,64.32
2022-09-26T18:37:19.662Z,64.43
2022-09-26T18:39:54.367Z,64.37
2022-09-26T18:42:25.494Z,64.41
2022-09-26T18:45:01.366Z,64.46
2022-09-26T18:47:37.435Z,64.27
2022-09-26T18:50:08.378Z,64.50
2022-09-26T18:52:37.709Z,64.47
2022-09-26T18:55:35.821Z,64.29
2022-09-26T18:58:23.770Z,64.54
2022-09-26T19:00:56.731Z,64.48
2022-09-26T19:03:30.957Z,64.46
2022-09-26T19:06:06.033Z,64.45
2022-09-26T19:08:38.512Z,64.46
2022-09-26T19:11:13.119Z,64.69
2022-09-26T19:13:44.633Z,64.53
2022-09-26T19:16:14.408Z,64.48
2022-09-26T19:18:45.838Z,64.61
2022-09-26T19:21:24.154Z,64.49
2022-09-26T19:23:53.969Z,64.53
2022-09-26T19:26:31.524Z,64.65
2022-09-26T19:29:02.374Z,64.64
2022-09-26T19:31:31.808Z,64.66
2022-09-26T19:34:03.564Z,64.63
2022-09-26T19:36:33.009Z,64.56
2022-09-26T19:39:02.363Z,64.64
2022-09-26T19:41:31.464Z,64.67
2022-09-26T19:44:02.406Z,64.64
2022-09-26T19:46:31.566Z,64.65
2022-09-26T19:49:03.188Z,64.53
2022-09-26T19:51:35.378Z,64.61
2022-09-26T19:54:06.415Z,64.51
2022-09-26T19:56:36.130Z,64.62
2022-09-26T19:59:05.732Z,64.64
2022-09-26T20:01:35.315Z,64.68
2022-09-26T20:04:08.555Z,64.42
2022-09-26T20:06:37.685Z,64.64
2022-09-26T20:09:14.701Z,64.54
2022-09-26T20:11:43.920Z,64.58
2022-09-26T20:14:25.950Z,64.65
2022-09-26T20:16:58.537Z,64.77
2022-09-26T20:19:35.468Z,64.69
2022-09-26T20:22:07.486Z,64.63
2022-09-26T20:24:39.887Z,64.70
2022-09-26T20:27:15.666Z,64.68
2022-09-26T20:30:03.113Z,64.78
2022-09-26T20:32:33.098Z,64.72
2022-09-26T20:35:06.123Z,64.65
2022-09-26T20:37:41.212Z,64.78
2022-09-26T20:40:17.790Z,64.72
2022-09-26T20:42:50.282Z,64.60
2022-09-26T20:45:23.888Z,64.76
2022-09-26T20:47:53.040Z,64.74
2022-09-26T20:50:23.890Z,64.68
2022-09-26T20:52:53.461Z,64.74
2022-09-26T20:55:22.419Z,64.69
2022-09-26T20:57:51.895Z,64.86
2022-09-26T21:00:22.432Z,64.78
2022-09-26T21:02:54.461Z,64.90
2022-09-26T21:05:27.440Z,64.79
2022-09-26T21:07:58.683Z,64.90
2022-09-26T21:10:29.519Z,64.82
2022-09-26T21:12:59.850Z,64.88
2022-09-26T21:15:31.326Z,64.90
2022-09-26T21:18:01.772Z,64.81
2022-09-26T21:20:33.992Z,64.96
2022-09-26T21:23:22.505Z,64.87
2022-09-26T21:25:52.100Z,64.96
2022-09-26T21:28:26.544Z,64.90
2022-09-26T21:30:58.709Z,65.08
2022-09-26T21:33:28.167Z,65.08
2022-09-26T21:35:58.827Z,65.05
2022-09-26T21:38:28.185Z,65.17
2022-09-26T21:41:01.356Z,65.21
2022-09-26T21:43:36.449Z,65.28
2022-09-26T21:46:05.782Z,65.33
2022-09-26T21:48:35.177Z,65.19
2022-09-26T21:51:08.293Z,65.20
2022-09-26T21:53:43.259Z,65.31
2022-09-26T21:56:17.336Z,65.43
2022-09-26T21:58:47.321Z,65.33
2022-09-26T22:01:16.458Z,65.34
2022-09-26T22:03:45.483Z,65.36
2022-09-26T22:06:16.107Z,65.40
2022-09-26T22:08:45.283Z,65.25
2022-09-26T22:11:14.461Z,65.28
2022-09-26T22:13:43.658Z,65.31
2022-09-26T22:16:14.319Z,65.39
2022-09-26T22:18:43.715Z,65.52
2022-09-26T22:21:12.933Z,65.38
2022-09-26T22:23:43.470Z,65.48
2022-09-26T22:26:12.567Z,65.60
2022-09-26T22:28:41.884Z,65.56
2022-09-26T22:31:10.989Z,65.51
2022-09-26T22:33:40.163Z,65.48
2022-09-26T22:36:09.681Z,65.47
2022-09-26T22:38:40.570Z,65.49
2022-09-26T22:41:11.200Z,65.50
2022-09-26T22:43:40.498Z,65.68
2022-09-26T22:46:11.952Z,65.53
2022-09-26T22:48:43.300Z,65.52
2022-09-26T22:51:13.182Z,65.52
2022-09-26T22:53:43.236Z,65.63
2022-09-26T22:56:15.708Z,65.58
2022-09-26T22:58:47.126Z,65.58
2022-09-26T23:01:18.394Z,65.64
2022-09-26T23:03:47.853Z,65.56
2022-09-26T23:06:17.210Z,65.70
2022-09-26T23:08:46.322Z,65.60
2022-09-26T23:11:18.459Z,65.58
2022-09-26T23:13:47.989Z,65.61
2022-09-26T23:16:20.206Z,65.61
2022-09-26T23:18:50.255Z,65.59
2022-09-26T23:21:21.662Z,65.74
2022-09-26T23:23:52.586Z,65.56
2022-09-26T23:26:27.072Z,65.68
2022-09-26T23:28:58.179Z,65.62
2022-09-26T23:31:28.679Z,65.68
2022-09-26T23:33:58.793Z,65.58
2022-09-26T23:36:28.137Z,65.73
2022-09-26T23:38:59.406Z,65.60
2022-09-26T23:41:29.938Z,65.60
2022-09-26T23:43:59.388Z,65.63
2022-09-26T23:46:28.579Z,65.55
2022-09-26T23:48:57.625Z,65.66
2022-09-26T23:51:26.892Z,65.53
2022-09-26T23:53:56.329Z,65.58
2022-09-26T23:56:25.312Z,65.49
2022-09-26T23:58:57.580Z,65.53
